sensor_id;sensor_type;location;lat;lon;timestamp;temperature;humidity
62998;DHT22;55949;52.590;7.330;2022-08-16T00:00:47;23.50;99.90
62998;DHT22;55949;52.590;7.330;2022-08-16T00:01:49;23.60;99.90
62998;DHT22;55949;52.590;7.330;2022-08-16T00:02:52;23.50;99.90
62998;DHT22;55949;52.590;7.330;2022-08-16T00:03:53;23.50;99.90
62998;DHT22;55949;52.590;7.330;2022-08-16T00:04:53;23.50;99.90
62998;DHT22;55949;52.590;7.330;2022-08-16T00:05:54;23.50;99.90
62998;DHT22;55949;52.590;7.330;2022-08-16T00:06:55;23.50;99.90
62998;DHT22;55949;52.590;7.330;2022-08-16T00:07:56;23.50;99.90
62998;DHT22;55949;52.590;7.330;2022-08-16T00:08:58;23.50;99.90
62998;DHT22;55949;52.590;7.330;2022-08-16T00:09:59;23.50;99.90
62998;DHT22;55949;52.590;7.330;2022-08-16T00:11:00;23.60;99.90
62998;DHT22;55949;52.590;7.330;2022-08-16T00:12:01;23.60;99.90
62998;DHT22;55949;52.590;7.330;2022-08-16T00:13:05;23.60;99.90
62998;DHT22;55949;52.590;7.330;2022-08-16T00:14:10;23.70;99.90
62998;DHT22;55949;52.590;7.330;2022-08-16T00:15:26;23.70;99.90
62998;DHT22;55949;52.590;7.330;2022-08-16T00:16:29;23.80;99.90
62998;DHT22;55949;52.590;7.330;2022-08-16T00:17:33;23.90;99.90
62998;DHT22;55949;52.590;7.330;2022-08-16T00:18:33;23.90;99.90
62998;DHT22;55949;52.590;7.330;2022-08-16T00:19:34;24.00;99.90
62998;DHT22;55949;52.590;7.330;2022-08-16T00:20:37;24.10;99.90
62998;DHT22;55949;52.590;7.330;2022-08-16T00:21:38;24.30;99.90
62998;DHT22;55949;52.590;7.330;2022-08-16T00:22:40;24.30;99.90
62998;DHT22;55949;52.590;7.330;2022-08-16T00:23:41;24.20;99.90
62998;DHT22;55949;52.590;7.330;2022-08-16T00:24:43;24.10;99.90
62998;DHT22;55949;52.590;7.330;2022-08-16T00:25:44;24.10;99.90
62998;DHT22;55949;52.590;7.330;2022-08-16T00:26:45;24.10;99.90
62998;DHT22;55949;52.590;7.330;2022-08-16T00:27:46;24.10;99.90
62998;DHT22;55949;52.590;7.330;2022-08-16T00:28:47;24.00;99.90
62998;DHT22;55949;52.590;7.330;2022-08-16T00:29:48;24.10;99.90
62998;DHT22;55949;52.590;7.330;2022-08-16T00:30:50;24.00;99.90
62998;DHT22;55949;52.590;7.330;2022-08-16T00:31:51;24.10;99.90
62998;DHT22;55949;52.590;7.330;2022-08-16T00:32:54;24.10;99.90
62998;DHT22;55949;52.590;7.330;2022-08-16T00:33:56;24.10;99.90
62998;DHT22;55949;52.590;7.330;2022-08-16T00:34:56;24.10;99.90
62998;DHT22;55949;52.590;7.330;2022-08-16T00:35:57;24.30;99.90
62998;DHT22;55949;52.590;7.330;2022-08-16T00:36:58;24.40;99.90
62998;DHT22;55949;52.590;7.330;2022-08-16T00:37:59;24.60;99.90
62998;DHT22;55949;52.590;7.330;2022-08-16T00:39:03;24.60;99.90
62998;DHT22;55949;52.590;7.330;2022-08-16T00:40:05;24.50;99.90
62998;DHT22;55949;52.590;7.330;2022-08-16T00:41:08;24.30;99.90
62998;DHT22;55949;52.590;7.330;2022-08-16T00:42:09;24.10;99.90
62998;DHT22;55949;52.590;7.330;2022-08-16T00:43:16;23.90;99.90
62998;DHT22;55949;52.590;7.330;2022-08-16T00:44:19;23.80;99.90
62998;DHT22;55949;52.590;7.330;2022-08-16T00:47:02;23.80;99.90
62998;DHT22;55949;52.590;7.330;2022-08-16T00:48:08;23.90;99.90
62998;DHT22;55949;52.590;7.330;2022-08-16T00:49:12;24.10;99.90
62998;DHT22;55949;52.590;7.330;2022-08-16T00:50:13;24.20;99.90
62998;DHT22;55949;52.590;7.330;2022-08-16T00:51:16;24.30;99.90
62998;DHT22;55949;52.590;7.330;2022-08-16T00:52:17;24.40;99.90
62998;DHT22;55949;52.590;7.330;2022-08-16T00:53:18;24.50;99.90
62998;DHT22;55949;52.590;7.330;2022-08-16T00:54:20;24.50;99.90
62998;DHT22;55949;52.590;7.330;2022-08-16T00:55:24;24.30;99.90
62998;DHT22;55949;52.590;7.330;2022-08-16T00:56:29;24.30;99.90
62998;DHT22;55949;52.590;7.330;2022-08-16T00:57:30;24.50;99.90
62998;DHT22;55949;52.590;7.330;2022-08-16T00:58:34;24.70;99.90
62998;DHT22;55949;52.590;7.330;2022-08-16T00:59:37;24.70;99.90
62998;DHT22;55949;52.590;7.330;2022-08-16T01:00:39;24.70;99.90
62998;DHT22;55949;52.590;7.330;2022-08-16T01:01:41;24.80;99.90
62998;DHT22;55949;52.590;7.330;2022-08-16T01:02:41;24.70;99.90
62998;DHT22;55949;52.590;7.330;2022-08-16T01:03:45;24.70;99.90
62998;DHT22;55949;52.590;7.330;2022-08-16T01:04:46;24.60;99.90
62998;DHT22;55949;52.590;7.330;2022-08-16T01:05:48;24.40;99.90
62998;DHT22;55949;52.590;7.330;2022-08-16T01:06:49;24.30;99.90
62998;DHT22;55949;52.590;7.330;2022-08-16T01:07:50;24.20;99.90
62998;DHT22;55949;52.590;7.330;2022-08-16T01:08:53;24.20;99.90
62998;DHT22;55949;52.590;7.330;2022-08-16T01:09:54;24.20;99.90
62998;DHT22;55949;52.590;7.330;2022-08-16T01:10:55;24.10;99.90
62998;DHT22;55949;52.590;7.330;2022-08-16T01:11:56;24.20;99.90
62998;DHT22;55949;52.590;7.330;2022-08-16T01:13:16;24.10;99.90
62998;DHT22;55949;52.590;7.330;2022-08-16T01:14:22;24.10;99.90
62998;DHT22;55949;52.590;7.330;2022-08-16T01:15:25;24.20;99.90
62998;DHT22;55949;52.590;7.330;2022-08-16T01:16:26;24.10;99.90
62998;DHT22;55949;52.590;7.330;2022-08-16T01:17:29;24.00;99.90
62998;DHT22;55949;52.590;7.330;2022-08-16T01:18:53;24.10;99.90
62998;DHT22;55949;52.590;7.330;2022-08-16T01:19:59;24.00;99.90
62998;DHT22;55949;52.590;7.330;2022-08-16T01:25:44;24.00;99.90
62998;DHT22;55949;52.590;7.330;2022-08-16T01:26:48;24.00;99.90
62998;DHT22;55949;52.590;7.330;2022-08-16T01:27:53;23.90;99.90
62998;DHT22;55949;52.590;7.330;2022-08-16T01:28:54;23.90;99.90
62998;DHT22;55949;52.590;7.330;2022-08-16T01:30:04;23.90;99.90
62998;DHT22;55949;52.590;7.330;2022-08-16T01:31:05;23.90;99.90
62998;DHT22;55949;52.590;7.330;2022-08-16T01:32:07;23.90;99.90
62998;DHT22;55949;52.590;7.330;2022-08-16T01:33:08;24.10;99.90
62998;DHT22;55949;52.590;7.330;2022-08-16T01:34:12;24.10;99.90
62998;DHT22;55949;52.590;7.330;2022-08-16T01:36:34;24.10;99.90
62998;DHT22;55949;52.590;7.330;2022-08-16T01:37:40;23.90;99.90
62998;DHT22;55949;52.590;7.330;2022-08-16T01:38:45;23.80;99.90
62998;DHT22;55949;52.590;7.330;2022-08-16T01:39:46;23.70;99.90
62998;DHT22;55949;52.590;7.330;2022-08-16T01:40:49;23.60;99.90
62998;DHT22;55949;52.590;7.330;2022-08-16T01:41:50;23.50;99.90
62998;DHT22;55949;52.590;7.330;2022-08-16T01:42:51;23.40;99.90
62998;DHT22;55949;52.590;7.330;2022-08-16T01:43:53;23.30;99.90
62998;DHT22;55949;52.590;7.330;2022-08-16T01:44:53;23.20;99.90
62998;DHT22;55949;52.590;7.330;2022-08-16T01:45:59;23.20;99.90
62998;DHT22;55949;52.590;7.330;2022-08-16T01:47:00;23.20;99.90
62998;DHT22;55949;52.590;7.330;2022-08-16T01:48:01;23.20;99.90
62998;DHT22;55949;52.590;7.330;2022-08-16T01:49:13;23.20;99.90
62998;DHT22;55949;52.590;7.330;2022-08-16T01:50:15;23.10;99.90
62998;DHT22;55949;52.590;7.330;2022-08-16T01:51:17;23.10;99.90
62998;DHT22;55949;52.590;7.330;2022-08-16T01:52:20;23.10;99.90
62998;DHT22;55949;52.590;7.330;2022-08-16T01:53:21;23.10;99.90
62998;DHT22;55949;52.590;7.330;2022-08-16T01:54:22;23.10;99.90
62998;DHT22;55949;52.590;7.330;2022-08-16T01:55:23;23.10;99.90
62998;DHT22;55949;52.590;7.330;2022-08-16T01:56:25;23.10;99.90
62998;DHT22;55949;52.590;7.330;2022-08-16T01:57:27;23.20;99.90
62998;DHT22;55949;52.590;7.330;2022-08-16T01:58:28;23.50;99.90
62998;DHT22;55949;52.590;7.330;2022-08-16T01:59:29;23.50;99.90
62998;DHT22;55949;52.590;7.330;2022-08-16T02:00:31;23.60;99.90
62998;DHT22;55949;52.590;7.330;2022-08-16T02:01:32;23.70;99.90
62998;DHT22;55949;52.590;7.330;2022-08-16T02:02:33;23.70;99.90
62998;DHT22;55949;52.590;7.330;2022-08-16T02:03:34;23.80;99.90
62998;DHT22;55949;52.590;7.330;2022-08-16T02:04:34;23.70;99.90
62998;DHT22;55949;52.590;7.330;2022-08-16T02:05:35;23.70;99.90
62998;DHT22;55949;52.590;7.330;2022-08-16T02:06:37;23.60;99.90
62998;DHT22;55949;52.590;7.330;2022-08-16T02:07:39;23.70;99.90
62998;DHT22;55949;52.590;7.330;2022-08-16T02:08:41;23.60;99.90
62998;DHT22;55949;52.590;7.330;2022-08-16T02:09:41;23.60;99.90
62998;DHT22;55949;52.590;7.330;2022-08-16T02:10:42;23.60;99.90
62998;DHT22;55949;52.590;7.330;2022-08-16T02:11:46;23.60;99.90
62998;DHT22;55949;52.590;7.330;2022-08-16T02:12:47;23.50;99.90
62998;DHT22;55949;52.590;7.330;2022-08-16T02:13:48;23.40;99.90
62998;DHT22;55949;52.590;7.330;2022-08-16T02:14:49;23.40;99.90
62998;DHT22;55949;52.590;7.330;2022-08-16T02:15:50;23.40;99.90
62998;DHT22;55949;52.590;7.330;2022-08-16T02:16:51;23.40;99.90
62998;DHT22;55949;52.590;7.330;2022-08-16T02:17:54;23.40;99.90
62998;DHT22;55949;52.590;7.330;2022-08-16T02:18:56;23.30;99.90
62998;DHT22;55949;52.590;7.330;2022-08-16T02:19:56;23.20;99.90
62998;DHT22;55949;52.590;7.330;2022-08-16T02:20:57;23.20;99.90
62998;DHT22;55949;52.590;7.330;2022-08-16T02:21:59;23.20;99.90
62998;DHT22;55949;52.590;7.330;2022-08-16T02:23:01;23.20;99.90
62998;DHT22;55949;52.590;7.330;2022-08-16T02:24:02;23.10;99.90
62998;DHT22;55949;52.590;7.330;2022-08-16T02:25:10;23.00;99.90
62998;DHT22;55949;52.590;7.330;2022-08-16T02:26:13;23.00;99.90
62998;DHT22;55949;52.590;7.330;2022-08-16T02:27:14;23.00;99.90
62998;DHT22;55949;52.590;7.330;2022-08-16T02:28:17;23.00;99.90
62998;DHT22;55949;52.590;7.330;2022-08-16T02:29:19;23.00;99.90
62998;DHT22;55949;52.590;7.330;2022-08-16T02:30:23;22.90;99.90
62998;DHT22;55949;52.590;7.330;2022-08-16T02:31:24;22.80;99.90
62998;DHT22;55949;52.590;7.330;2022-08-16T02:32:25;22.80;99.90
62998;DHT22;55949;52.590;7.330;2022-08-16T02:33:26;22.80;99.90
62998;DHT22;55949;52.590;7.330;2022-08-16T02:34:27;22.80;99.90
62998;DHT22;55949;52.590;7.330;2022-08-16T02:35:27;22.80;99.90
62998;DHT22;55949;52.590;7.330;2022-08-16T02:36:28;22.70;99.90
62998;DHT22;55949;52.590;7.330;2022-08-16T02:37:29;22.70;99.90
62998;DHT22;55949;52.590;7.330;2022-08-16T02:38:30;22.70;99.90
62998;DHT22;55949;52.590;7.330;2022-08-16T02:39:31;22.70;99.90
62998;DHT22;55949;52.590;7.330;2022-08-16T02:40:32;22.70;99.90
62998;DHT22;55949;52.590;7.330;2022-08-16T02:41:34;22.60;99.90
62998;DHT22;55949;52.590;7.330;2022-08-16T02:42:36;22.60;99.90
62998;DHT22;55949;52.590;7.330;2022-08-16T02:43:37;22.60;99.90
62998;DHT22;55949;52.590;7.330;2022-08-16T02:44:37;22.80;99.90
62998;DHT22;55949;52.590;7.330;2022-08-16T02:45:39;23.00;99.90
62998;DHT22;55949;52.590;7.330;2022-08-16T02:46:41;23.00;99.90
62998;DHT22;55949;52.590;7.330;2022-08-16T02:47:42;23.00;99.90
62998;DHT22;55949;52.590;7.330;2022-08-16T02:48:43;23.00;99.90
62998;DHT22;55949;52.590;7.330;2022-08-16T02:49:44;23.10;99.90
62998;DHT22;55949;52.590;7.330;2022-08-16T02:50:45;23.20;99.90
62998;DHT22;55949;52.590;7.330;2022-08-16T02:51:45;23.30;99.90
62998;DHT22;55949;52.590;7.330;2022-08-16T02:52:47;23.40;99.90
62998;DHT22;55949;52.590;7.330;2022-08-16T02:53:48;23.40;99.90
62998;DHT22;55949;52.590;7.330;2022-08-16T02:54:49;23.60;99.90
62998;DHT22;55949;52.590;7.330;2022-08-16T02:55:50;23.60;99.90
62998;DHT22;55949;52.590;7.330;2022-08-16T02:56:51;23.50;99.90
62998;DHT22;55949;52.590;7.330;2022-08-16T02:57:52;23.40;99.90
62998;DHT22;55949;52.590;7.330;2022-08-16T02:58:53;23.40;99.90
62998;DHT22;55949;52.590;7.330;2022-08-16T02:59:54;23.50;99.90
62998;DHT22;55949;52.590;7.330;2022-08-16T03:00:55;23.60;99.90
62998;DHT22;55949;52.590;7.330;2022-08-16T03:01:57;23.50;99.90
62998;DHT22;55949;52.590;7.330;2022-08-16T03:02:58;23.40;99.90
62998;DHT22;55949;52.590;7.330;2022-08-16T03:04:01;23.30;99.90
62998;DHT22;55949;52.590;7.330;2022-08-16T03:05:03;23.10;99.90
62998;DHT22;55949;52.590;7.330;2022-08-16T03:06:04;23.00;99.90
62998;DHT22;55949;52.590;7.330;2022-08-16T03:07:05;23.00;99.90
62998;DHT22;55949;52.590;7.330;2022-08-16T03:08:06;22.90;99.90
62998;DHT22;55949;52.590;7.330;2022-08-16T03:09:08;22.80;99.90
62998;DHT22;55949;52.590;7.330;2022-08-16T03:10:10;22.80;99.90
62998;DHT22;55949;52.590;7.330;2022-08-16T03:11:12;22.70;99.90
62998;DHT22;55949;52.590;7.330;2022-08-16T03:12:13;22.70;99.90
62998;DHT22;55949;52.590;7.330;2022-08-16T03:13:15;22.60;99.90
62998;DHT22;55949;52.590;7.330;2022-08-16T03:14:16;22.60;99.90
62998;DHT22;55949;52.590;7.330;2022-08-16T03:15:17;22.80;99.90
62998;DHT22;55949;52.590;7.330;2022-08-16T03:16:20;22.70;99.90
62998;DHT22;55949;52.590;7.330;2022-08-16T03:17:21;22.80;99.90
62998;DHT22;55949;52.590;7.330;2022-08-16T03:18:22;22.80;99.90
62998;DHT22;55949;52.590;7.330;2022-08-16T03:19:22;22.80;99.90
62998;DHT22;55949;52.590;7.330;2022-08-16T03:20:25;22.80;99.90
62998;DHT22;55949;52.590;7.330;2022-08-16T03:21:26;22.80;99.90
62998;DHT22;55949;52.590;7.330;2022-08-16T03:22:28;22.80;99.90
62998;DHT22;55949;52.590;7.330;2022-08-16T03:23:29;22.90;99.90
62998;DHT22;55949;52.590;7.330;2022-08-16T03:24:29;22.90;99.90
62998;DHT22;55949;52.590;7.330;2022-08-16T03:25:31;22.80;99.90
62998;DHT22;55949;52.590;7.330;2022-08-16T03:26:33;22.90;99.90
62998;DHT22;55949;52.590;7.330;2022-08-16T03:27:34;23.00;99.90
62998;DHT22;55949;52.590;7.330;2022-08-16T03:28:35;23.30;99.90
62998;DHT22;55949;52.590;7.330;2022-08-16T03:29:36;23.30;99.90
62998;DHT22;55949;52.590;7.330;2022-08-16T03:30:37;23.20;99.90
62998;DHT22;55949;52.590;7.330;2022-08-16T03:31:38;23.00;99.90
62998;DHT22;55949;52.590;7.330;2022-08-16T03:32:39;23.00;99.90
62998;DHT22;55949;52.590;7.330;2022-08-16T03:33:40;22.90;99.90
62998;DHT22;55949;52.590;7.330;2022-08-16T03:34:41;22.90;99.90
62998;DHT22;55949;52.590;7.330;2022-08-16T03:35:42;22.90;99.90
62998;DHT22;55949;52.590;7.330;2022-08-16T03:36:43;22.80;99.90
62998;DHT22;55949;52.590;7.330;2022-08-16T03:37:45;22.80;99.90
62998;DHT22;55949;52.590;7.330;2022-08-16T03:38:46;22.80;99.90
62998;DHT22;55949;52.590;7.330;2022-08-16T03:39:47;22.80;99.90
62998;DHT22;55949;52.590;7.330;2022-08-16T03:40:47;22.80;99.90
62998;DHT22;55949;52.590;7.330;2022-08-16T03:41:48;22.80;99.90
62998;DHT22;55949;52.590;7.330;2022-08-16T03:42:50;22.80;99.90
62998;DHT22;55949;52.590;7.330;2022-08-16T03:43:51;22.80;99.90
62998;DHT22;55949;52.590;7.330;2022-08-16T03:44:54;22.90;99.90
62998;DHT22;55949;52.590;7.330;2022-08-16T03:45:55;23.00;99.90
62998;DHT22;55949;52.590;7.330;2022-08-16T03:46:57;22.90;99.90
62998;DHT22;55949;52.590;7.330;2022-08-16T03:47:58;22.90;99.90
62998;DHT22;55949;52.590;7.330;2022-08-16T03:48:59;22.90;99.90
62998;DHT22;55949;52.590;7.330;2022-08-16T03:50:01;22.80;99.90
62998;DHT22;55949;52.590;7.330;2022-08-16T03:51:04;22.80;99.90
62998;DHT22;55949;52.590;7.330;2022-08-16T03:52:07;22.70;99.90
62998;DHT22;55949;52.590;7.330;2022-08-16T03:53:08;22.60;99.90
62998;DHT22;55949;52.590;7.330;2022-08-16T03:54:09;22.60;99.90
62998;DHT22;55949;52.590;7.330;2022-08-16T03:55:10;22.60;99.90
62998;DHT22;55949;52.590;7.330;2022-08-16T03:56:11;22.50;99.90
62998;DHT22;55949;52.590;7.330;2022-08-16T03:57:12;22.40;99.90
62998;DHT22;55949;52.590;7.330;2022-08-16T03:58:13;22.40;99.90
62998;DHT22;55949;52.590;7.330;2022-08-16T03:59:14;22.40;99.90
62998;DHT22;55949;52.590;7.330;2022-08-16T04:00:21;22.40;99.90
62998;DHT22;55949;52.590;7.330;2022-08-16T04:01:22;22.40;99.90
62998;DHT22;55949;52.590;7.330;2022-08-16T04:02:23;22.40;99.90
62998;DHT22;55949;52.590;7.330;2022-08-16T04:03:24;22.40;99.90
62998;DHT22;55949;52.590;7.330;2022-08-16T04:04:25;22.40;99.90
62998;DHT22;55949;52.590;7.330;2022-08-16T04:05:26;22.40;99.90
62998;DHT22;55949;52.590;7.330;2022-08-16T04:06:27;22.40;99.90
62998;DHT22;55949;52.590;7.330;2022-08-16T04:07:28;22.40;99.90
62998;DHT22;55949;52.590;7.330;2022-08-16T04:08:29;22.30;99.90
62998;DHT22;55949;52.590;7.330;2022-08-16T04:09:31;22.30;99.90
62998;DHT22;55949;52.590;7.330;2022-08-16T04:10:32;22.30;99.90
62998;DHT22;55949;52.590;7.330;2022-08-16T04:11:33;22.50;99.90
62998;DHT22;55949;52.590;7.330;2022-08-16T04:12:34;22.70;99.90
62998;DHT22;55949;52.590;7.330;2022-08-16T04:13:35;22.80;99.90
62998;DHT22;55949;52.590;7.330;2022-08-16T04:14:36;22.80;99.90
62998;DHT22;55949;52.590;7.330;2022-08-16T04:15:37;22.70;99.90
62998;DHT22;55949;52.590;7.330;2022-08-16T04:16:38;22.80;99.90
62998;DHT22;55949;52.590;7.330;2022-08-16T04:17:39;23.00;99.90
62998;DHT22;55949;52.590;7.330;2022-08-16T04:18:39;23.00;99.90
62998;DHT22;55949;52.590;7.330;2022-08-16T04:19:42;23.10;99.90
62998;DHT22;55949;52.590;7.330;2022-08-16T04:20:46;23.10;99.90
62998;DHT22;55949;52.590;7.330;2022-08-16T04:21:46;23.20;99.90
62998;DHT22;55949;52.590;7.330;2022-08-16T04:22:47;23.40;99.90
62998;DHT22;55949;52.590;7.330;2022-08-16T04:23:47;23.20;99.90
62998;DHT22;55949;52.590;7.330;2022-08-16T04:24:48;23.10;99.90
62998;DHT22;55949;52.590;7.330;2022-08-16T04:25:50;23.20;99.90
62998;DHT22;55949;52.590;7.330;2022-08-16T04:26:51;23.10;99.90
62998;DHT22;55949;52.590;7.330;2022-08-16T04:27:52;23.00;99.90
62998;DHT22;55949;52.590;7.330;2022-08-16T04:28:53;22.90;99.90
62998;DHT22;55949;52.590;7.330;2022-08-16T04:29:54;22.90;99.90
62998;DHT22;55949;52.590;7.330;2022-08-16T04:30:54;22.90;99.90
62998;DHT22;55949;52.590;7.330;2022-08-16T04:31:55;23.00;99.90
62998;DHT22;55949;52.590;7.330;2022-08-16T04:32:56;23.20;99.90
62998;DHT22;55949;52.590;7.330;2022-08-16T04:33:57;23.40;99.90
62998;DHT22;55949;52.590;7.330;2022-08-16T04:34:58;23.40;99.90
62998;DHT22;55949;52.590;7.330;2022-08-16T04:35:59;23.40;99.90
62998;DHT22;55949;52.590;7.330;2022-08-16T04:37:01;23.40;99.90
62998;DHT22;55949;52.590;7.330;2022-08-16T04:38:02;23.40;99.90
62998;DHT22;55949;52.590;7.330;2022-08-16T04:39:04;23.30;99.90
62998;DHT22;55949;52.590;7.330;2022-08-16T04:40:05;23.10;99.90
62998;DHT22;55949;52.590;7.330;2022-08-16T04:41:10;23.00;99.90
62998;DHT22;55949;52.590;7.330;2022-08-16T04:42:11;23.00;99.90
62998;DHT22;55949;52.590;7.330;2022-08-16T04:43:12;23.10;99.90
62998;DHT22;55949;52.590;7.330;2022-08-16T04:44:14;23.10;99.90
62998;DHT22;55949;52.590;7.330;2022-08-16T04:45:16;23.10;99.90
62998;DHT22;55949;52.590;7.330;2022-08-16T04:46:17;23.20;99.90
62998;DHT22;55949;52.590;7.330;2022-08-16T04:47:18;23.20;99.90
62998;DHT22;55949;52.590;7.330;2022-08-16T04:48:18;23.20;99.90
62998;DHT22;55949;52.590;7.330;2022-08-16T04:49:19;23.10;99.90
62998;DHT22;55949;52.590;7.330;2022-08-16T04:50:24;22.90;99.90
62998;DHT22;55949;52.590;7.330;2022-08-16T04:51:26;22.80;99.90
62998;DHT22;55949;52.590;7.330;2022-08-16T04:52:28;22.70;99.90
62998;DHT22;55949;52.590;7.330;2022-08-16T04:53:28;22.50;99.90
62998;DHT22;55949;52.590;7.330;2022-08-16T04:54:29;22.40;99.90
62998;DHT22;55949;52.590;7.330;2022-08-16T04:55:31;22.30;99.90
62998;DHT22;55949;52.590;7.330;2022-08-16T04:56:33;22.30;99.90
62998;DHT22;55949;52.590;7.330;2022-08-16T04:57:34;22.30;99.90
62998;DHT22;55949;52.590;7.330;2022-08-16T04:58:35;22.40;99.90
62998;DHT22;55949;52.590;7.330;2022-08-16T04:59:35;22.50;99.90
62998;DHT22;55949;52.590;7.330;2022-08-16T05:00:36;22.60;99.90
62998;DHT22;55949;52.590;7.330;2022-08-16T05:01:37;22.80;99.90
62998;DHT22;55949;52.590;7.330;2022-08-16T05:02:39;22.90;99.90
62998;DHT22;55949;52.590;7.330;2022-08-16T05:03:40;22.90;99.90
62998;DHT22;55949;52.590;7.330;2022-08-16T05:04:41;23.00;99.90
62998;DHT22;55949;52.590;7.330;2022-08-16T05:05:43;23.10;99.90
62998;DHT22;55949;52.590;7.330;2022-08-16T05:06:43;23.30;99.90
62998;DHT22;55949;52.590;7.330;2022-08-16T05:07:45;23.30;99.90
62998;DHT22;55949;52.590;7.330;2022-08-16T05:08:46;23.20;99.90
62998;DHT22;55949;52.590;7.330;2022-08-16T05:09:47;23.10;99.90
62998;DHT22;55949;52.590;7.330;2022-08-16T05:10:48;23.00;99.90
62998;DHT22;55949;52.590;7.330;2022-08-16T05:11:48;23.00;99.90
62998;DHT22;55949;52.590;7.330;2022-08-16T05:12:49;23.00;99.90
62998;DHT22;55949;52.590;7.330;2022-08-16T05:13:50;22.90;99.90
62998;DHT22;55949;52.590;7.330;2022-08-16T05:14:51;22.80;99.90
62998;DHT22;55949;52.590;7.330;2022-08-16T05:15:51;22.80;99.90
62998;DHT22;55949;52.590;7.330;2022-08-16T05:16:53;22.90;99.90
62998;DHT22;55949;52.590;7.330;2022-08-16T05:17:54;22.90;99.90
62998;DHT22;55949;52.590;7.330;2022-08-16T05:18:57;22.90;99.90
62998;DHT22;55949;52.590;7.330;2022-08-16T05:19:58;22.80;99.90
62998;DHT22;55949;52.590;7.330;2022-08-16T05:20:59;22.90;99.90
62998;DHT22;55949;52.590;7.330;2022-08-16T05:21:59;23.00;99.90
62998;DHT22;55949;52.590;7.330;2022-08-16T05:23:00;23.00;99.90
62998;DHT22;55949;52.590;7.330;2022-08-16T05:24:01;23.00;99.90
62998;DHT22;55949;52.590;7.330;2022-08-16T05:25:03;23.10;99.90
62998;DHT22;55949;52.590;7.330;2022-08-16T05:26:04;23.00;99.90
62998;DHT22;55949;52.590;7.330;2022-08-16T05:27:05;23.00;99.90
62998;DHT22;55949;52.590;7.330;2022-08-16T05:28:07;23.10;99.90
62998;DHT22;55949;52.590;7.330;2022-08-16T05:29:10;23.00;99.90
62998;DHT22;55949;52.590;7.330;2022-08-16T05:30:12;23.00;99.90
62998;DHT22;55949;52.590;7.330;2022-08-16T05:31:13;23.00;99.90
62998;DHT22;55949;52.590;7.330;2022-08-16T05:32:15;23.10;99.90
62998;DHT22;55949;52.590;7.330;2022-08-16T05:33:16;23.10;99.90
62998;DHT22;55949;52.590;7.330;2022-08-16T05:34:17;23.10;99.90
62998;DHT22;55949;52.590;7.330;2022-08-16T05:35:20;23.10;99.90
62998;DHT22;55949;52.590;7.330;2022-08-16T05:36:21;23.10;99.90
62998;DHT22;55949;52.590;7.330;2022-08-16T05:37:22;23.20;99.90
62998;DHT22;55949;52.590;7.330;2022-08-16T05:38:23;23.30;99.90
62998;DHT22;55949;52.590;7.330;2022-08-16T05:39:27;23.30;99.90
62998;DHT22;55949;52.590;7.330;2022-08-16T05:40:28;23.20;99.90
62998;DHT22;55949;52.590;7.330;2022-08-16T05:41:29;23.30;99.90
62998;DHT22;55949;52.590;7.330;2022-08-16T05:42:30;23.40;99.90
62998;DHT22;55949;52.590;7.330;2022-08-16T05:43:30;23.50;99.90
62998;DHT22;55949;52.590;7.330;2022-08-16T05:44:31;23.40;99.90
62998;DHT22;55949;52.590;7.330;2022-08-16T05:45:32;23.50;99.90
62998;DHT22;55949;52.590;7.330;2022-08-16T05:46:33;23.50;99.90
62998;DHT22;55949;52.590;7.330;2022-08-16T05:47:34;23.40;99.90
62998;DHT22;55949;52.590;7.330;2022-08-16T05:48:35;23.40;99.90
62998;DHT22;55949;52.590;7.330;2022-08-16T05:49:36;23.40;99.90
62998;DHT22;55949;52.590;7.330;2022-08-16T05:50:37;23.40;99.90
62998;DHT22;55949;52.590;7.330;2022-08-16T05:51:39;23.40;99.90
62998;DHT22;55949;52.590;7.330;2022-08-16T05:52:40;23.40;99.90
62998;DHT22;55949;52.590;7.330;2022-08-16T05:53:41;23.40;99.90
62998;DHT22;55949;52.590;7.330;2022-08-16T05:54:42;23.40;99.90
62998;DHT22;55949;52.590;7.330;2022-08-16T05:55:43;23.40;99.90
62998;DHT22;55949;52.590;7.330;2022-08-16T05:56:44;23.60;99.90
62998;DHT22;55949;52.590;7.330;2022-08-16T05:57:48;23.60;99.90
62998;DHT22;55949;52.590;7.330;2022-08-16T05:58:48;23.60;99.90
62998;DHT22;55949;52.590;7.330;2022-08-16T05:59:49;23.50;99.90
62998;DHT22;55949;52.590;7.330;2022-08-16T06:00:50;23.50;99.90
62998;DHT22;55949;52.590;7.330;2022-08-16T06:01:51;23.50;99.90
62998;DHT22;55949;52.590;7.330;2022-08-16T06:02:52;23.60;99.90
62998;DHT22;55949;52.590;7.330;2022-08-16T06:03:53;23.70;99.90
62998;DHT22;55949;52.590;7.330;2022-08-16T06:04:53;23.80;99.90
62998;DHT22;55949;52.590;7.330;2022-08-16T06:05:55;23.80;99.90
62998;DHT22;55949;52.590;7.330;2022-08-16T06:06:55;23.80;99.90
62998;DHT22;55949;52.590;7.330;2022-08-16T06:07:56;23.80;99.90
62998;DHT22;55949;52.590;7.330;2022-08-16T06:08:57;23.90;99.90
62998;DHT22;55949;52.590;7.330;2022-08-16T06:09:58;24.00;99.90
62998;DHT22;55949;52.590;7.330;2022-08-16T06:10:59;24.00;99.90
62998;DHT22;55949;52.590;7.330;2022-08-16T06:12:00;24.10;99.90
62998;DHT22;55949;52.590;7.330;2022-08-16T06:13:01;24.10;99.90
62998;DHT22;55949;52.590;7.330;2022-08-16T06:14:04;24.20;99.90
62998;DHT22;55949;52.590;7.330;2022-08-16T06:15:22;24.30;99.90
62998;DHT22;55949;52.590;7.330;2022-08-16T06:16:23;24.40;99.90
62998;DHT22;55949;52.590;7.330;2022-08-16T06:17:24;24.40;99.90
62998;DHT22;55949;52.590;7.330;2022-08-16T06:18:25;24.50;99.90
62998;DHT22;55949;52.590;7.330;2022-08-16T06:19:26;24.60;99.90
62998;DHT22;55949;52.590;7.330;2022-08-16T06:20:27;24.60;99.90
62998;DHT22;55949;52.590;7.330;2022-08-16T06:21:28;24.70;99.90
62998;DHT22;55949;52.590;7.330;2022-08-16T06:22:29;24.60;99.90
62998;DHT22;55949;52.590;7.330;2022-08-16T06:23:30;24.70;99.90
62998;DHT22;55949;52.590;7.330;2022-08-16T06:24:30;24.70;99.90
62998;DHT22;55949;52.590;7.330;2022-08-16T06:25:32;24.70;99.90
62998;DHT22;55949;52.590;7.330;2022-08-16T06:26:33;24.80;99.90
62998;DHT22;55949;52.590;7.330;2022-08-16T06:27:34;24.80;99.90
62998;DHT22;55949;52.590;7.330;2022-08-16T06:28:34;24.90;99.90
62998;DHT22;55949;52.590;7.330;2022-08-16T06:29:35;25.00;99.90
62998;DHT22;55949;52.590;7.330;2022-08-16T06:30:38;25.00;99.90
62998;DHT22;55949;52.590;7.330;2022-08-16T06:31:39;25.00;99.90
62998;DHT22;55949;52.590;7.330;2022-08-16T06:32:40;24.90;99.90
62998;DHT22;55949;52.590;7.330;2022-08-16T06:33:41;24.90;99.90
62998;DHT22;55949;52.590;7.330;2022-08-16T06:34:42;25.00;99.90
62998;DHT22;55949;52.590;7.330;2022-08-16T06:35:43;25.10;99.90
62998;DHT22;55949;52.590;7.330;2022-08-16T06:36:44;25.30;99.90
62998;DHT22;55949;52.590;7.330;2022-08-16T06:37:44;25.20;99.90